createdAt,value
2019-02-24T00:00:16.646Z,57.6
2019-02-24T00:11:03.260Z,56.8
2019-02-24T00:21:50.194Z,57.5
2019-02-24T00:32:37.320Z,56.2
2019-02-24T00:43:25.896Z,56.3
2019-02-24T00:54:13.493Z,57.1
2019-02-24T01:05:00.918Z,55.7
2019-02-24T01:15:48.245Z,55.7
2019-02-24T01:26:35.786Z,56.5
2019-02-24T01:37:24.162Z,54.3
2019-02-24T01:48:10.869Z,55.7
2019-02-24T01:58:58.452Z,54.9
2019-02-24T02:09:45.278Z,56
2019-02-24T02:20:33.034Z,55.1
2019-02-24T02:31:20.814Z,56.1
2019-02-24T02:42:08.065Z,56.6
2019-02-24T02:52:54.805Z,56.9
2019-02-24T03:03:43.584Z,58.7
2019-02-24T03:14:30.793Z,57.9
2019-02-24T03:25:17.574Z,59.6
2019-02-24T03:36:05.349Z,58.6
2019-02-24T03:46:52.332Z,58.4
2019-02-24T03:57:39.368Z,58.6
2019-02-24T04:08:28.041Z,57.8
2019-02-24T04:19:15.351Z,58.1
2019-02-24T04:30:02.987Z,58.6
2019-02-24T04:40:50.872Z,59.3
2019-02-24T04:51:37.802Z,59.2
2019-02-24T05:02:24.604Z,60.1
2019-02-24T05:13:11.317Z,60.8
2019-02-24T05:23:58.454Z,61.2
2019-02-24T05:34:45.454Z,61.6
2019-02-24T05:45:33.131Z,62.2
2019-02-24T05:56:21.619Z,62.9
2019-02-24T06:07:09.072Z,63.9
2019-02-24T06:17:55.902Z,62.7
2019-02-24T06:28:43.744Z,63
2019-02-24T06:39:30.413Z,63.2
2019-02-24T06:50:17.091Z,62.4
2019-02-24T07:01:03.969Z,62.3
2019-02-24T07:11:52.267Z,62
2019-02-24T07:22:39.719Z,61.5
2019-02-24T07:33:26.605Z,61.9
2019-02-24T07:44:13.460Z,60.6
2019-02-24T07:55:00.330Z,60.2
2019-02-24T08:05:47.819Z,59.2
2019-02-24T08:16:37.008Z,59.9
2019-02-24T08:27:23.838Z,59.3
2019-02-24T08:38:11.058Z,58.7
2019-02-24T08:48:58.008Z,54.9
2019-02-24T08:59:45.108Z,54.4
2019-02-24T09:10:33.128Z,50.1
2019-02-24T09:21:20.363Z,44.5
2019-02-24T09:32:07.976Z,46.2
2019-02-24T09:42:55.826Z,46.4
2019-02-24T09:53:43.026Z,47.5
2019-02-24T10:04:29.808Z,47.9
2019-02-24T10:15:16.623Z,42.8
2019-02-24T10:26:04.405Z,41.5
2019-02-24T10:36:52.467Z,41.9
2019-02-24T10:47:40.376Z,46.8
2019-02-24T10:58:34.459Z,45.6
2019-02-24T11:09:21.735Z,41.1
2019-02-24T11:20:09.044Z,39.5
2019-02-24T11:30:55.895Z,36.8
2019-02-24T11:41:44.555Z,33.9
2019-02-24T11:52:31.469Z,36.5
2019-02-24T12:03:18.329Z,35.8
2019-02-24T12:14:07.164Z,36.1
2019-02-24T12:24:53.901Z,31.5
2019-02-24T12:35:41.493Z,32.8
2019-02-24T12:46:28.352Z,33.2
2019-02-24T12:57:15.411Z,32.9
2019-02-24T13:08:02.100Z,34
2019-02-24T13:18:49.501Z,35.8
2019-02-24T13:29:36.499Z,35.2
2019-02-24T13:40:24.144Z,35.9
2019-02-24T13:51:11.402Z,36.1
2019-02-24T14:01:59.020Z,34.6
2019-02-24T14:12:47.436Z,34.5
2019-02-24T14:23:34.231Z,35.2
2019-02-24T14:34:21.471Z,33.1
2019-02-24T14:45:10.381Z,30.7
2019-02-24T14:55:57.109Z,32.4
2019-02-24T15:06:45.440Z,32.6
2019-02-24T15:17:32.451Z,31.9
2019-02-24T15:28:20.063Z,32.3
2019-02-24T15:39:07.327Z,33.1
2019-02-24T15:49:55.447Z,34.1
2019-02-24T16:00:43.515Z,34.3
2019-02-24T16:11:30.591Z,36.1
2019-02-24T16:22:17.908Z,35.1
2019-02-24T16:33:10.492Z,36.5
2019-02-24T16:43:58.753Z,36.8
2019-02-24T16:54:52.747Z,37.4
2019-02-24T17:05:40.468Z,37.6
2019-02-24T17:16:29.167Z,39.1
2019-02-24T17:27:16.164Z,39.4
2019-02-24T17:38:03.199Z,40.7
2019-02-24T17:48:50.311Z,42.4
2019-02-24T17:59:40.477Z,43.8
2019-02-24T18:10:27.715Z,44.7
2019-02-24T18:21:14.520Z,44.1
2019-02-24T18:32:01.426Z,44.4
2019-02-24T18:42:48.128Z,44.9
2019-02-24T18:53:35.141Z,45.4
2019-02-24T19:04:22.071Z,44.9
2019-02-24T19:15:09.843Z,45.7
2019-02-24T19:25:59.049Z,45.5
2019-02-24T19:36:48.544Z,46.1
2019-02-24T19:47:35.593Z,47.1
2019-02-24T19:58:23.056Z,47.9
2019-02-24T20:09:10.655Z,49
2019-02-24T20:19:58.554Z,48.6
2019-02-24T20:30:45.714Z,48.4
2019-02-24T20:41:32.530Z,48.4
2019-02-24T20:52:20.453Z,49.9
2019-02-24T21:03:07.771Z,50.3
2019-02-24T21:13:55.459Z,50.1
2019-02-24T21:24:43.188Z,51
2019-02-24T21:35:30.015Z,50.9
2019-02-24T21:46:17.760Z,51.2
2019-02-24T21:57:05.612Z,51.1
2019-02-24T22:07:55.585Z,50.6
2019-02-24T22:18:42.586Z,51.1
2019-02-24T22:29:29.674Z,51.1
2019-02-24T22:40:17.336Z,52
2019-02-24T22:51:04.131Z,52.5
2019-02-24T23:01:50.860Z,52.7
2019-02-24T23:12:37.919Z,52.7
2019-02-24T23:23:25.326Z,52.8
2019-02-24T23:34:12.578Z,53
2019-02-24T23:44:59.370Z,53.6
2019-02-24T23:55:47.029Z,53.3
